Time;durP1;ratioP1;P1;durP2;ratioP2;P2;SDS_P1;SDS_P2;PMS_P1;PMS_P2;Temp;Humidity;BMP_temperature;BMP_pressure;BME280_temperature;BME280_humidity;BME280_pressure;Samples;Min_cycle;Max_cycle;Signal;HPM_P1;HPM_P2
2021/01/26 00:01:29;;;;;;;24.90;16.50;;;;;;;1.17;80.09;100101.09;4926648;29;20052;-80
2021/01/26 00:03:56;;;;;;;23.05;14.55;;;;;;;1.14;80.07;100092.44;4905622;29;20428;-80
2021/01/26 00:06:25;;;;;;;23.35;14.77;;;;;;;1.12;79.99;100089.00;4919107;29;20143;-80
2021/01/26 00:08:51;;;;;;;23.85;14.98;;;;;;;1.10;80.13;100088.16;4925956;29;20379;-81
2021/01/26 00:11:18;;;;;;;24.70;14.95;;;;;;;1.09;80.58;100086.44;4916909;29;20080;-81
2021/01/26 00:13:44;;;;;;;21.08;14.55;;;;;;;1.10;80.05;100090.78;4918107;29;20745;-79
2021/01/26 00:16:11;;;;;;;21.63;14.10;;;;;;;1.14;79.92;100089.84;4900197;29;20074;-80
2021/01/26 00:18:44;;;;;;;21.52;13.48;;;;;;;1.11;79.82;100089.88;4914426;29;20720;-80
2021/01/26 00:21:11;;;;;;;21.30;13.75;;;;;;;1.07;80.50;100083.00;4918017;29;20461;-82
2021/01/26 00:23:38;;;;;;;20.67;14.52;;;;;;;1.08;80.69;100084.72;4917790;29;20142;-82
2021/01/26 00:26:04;;;;;;;20.13;13.23;;;;;;;1.08;79.94;100087.31;4916604;29;20056;-81
2021/01/26 00:28:34;;;;;;;24.10;14.32;;;;;;;1.09;80.57;100087.31;4917901;29;20482;-80
2021/01/26 00:31:01;;;;;;;20.17;12.68;;;;;;;1.08;80.37;100101.22;4915754;29;20067;-81
2021/01/26 00:33:27;;;;;;;20.35;13.45;;;;;;;1.07;80.43;100093.41;4899235;29;20048;-83
2021/01/26 00:35:53;;;;;;;21.17;13.45;;;;;;;1.04;80.83;100084.75;4914797;29;20139;-80
2021/01/26 00:38:21;;;;;;;23.95;14.13;;;;;;;1.04;80.42;100089.09;4912078;29;20086;-82
2021/01/26 00:40:47;;;;;;;21.92;13.75;;;;;;;1.02;80.68;100085.66;4912303;29;20056;-81
2021/01/26 00:43:17;;;;;;;19.45;12.82;;;;;;;1.04;81.05;100086.50;4892870;29;20075;-80
2021/01/26 00:45:46;;;;;;;;;;;;;;;1.07;81.08;100096.03;4911481;29;20108;-80
2021/01/26 00:48:13;;;;;;;19.55;12.30;;;;;;;1.16;80.40;100077.63;4914400;29;19931;-81
2021/01/26 00:50:47;;;;;;;23.13;12.77;;;;;;;1.16;80.48;100077.63;4914905;29;20056;-81
2021/01/26 00:53:14;;;;;;;21.65;13.30;;;;;;;1.17;80.10;100085.44;4918284;29;20052;-81
2021/01/26 00:55:43;;;;;;;20.70;12.65;;;;;;;1.20;79.79;100074.13;4911022;29;20052;-81
2021/01/26 00:58:10;;;;;;;19.20;12.90;;;;;;;1.22;80.26;100083.66;4910604;29;20052;-81
2021/01/26 01:00:38;;;;;;;21.85;12.70;;;;;;;1.20;79.86;100080.19;4914421;29;20101;-80
2021/01/26 01:03:06;;;;;;;22.15;12.77;;;;;;;1.18;79.80;100076.75;4922220;29;20167;-80
2021/01/26 01:05:34;;;;;;;21.15;12.70;;;;;;;1.20;80.32;100084.53;4916182;29;20086;-81
2021/01/26 01:08:01;;;;;;;21.60;13.45;;;;;;;1.23;80.39;100081.91;4914239;29;20048;-79
2021/01/26 01:10:32;;;;;;;22.30;12.07;;;;;;;1.23;80.05;100084.50;4917775;29;20060;-80
2021/01/26 01:12:59;;;;;;;21.00;12.93;;;;;;;1.25;80.14;100077.53;4917846;29;20076;-81
2021/01/26 01:15:25;;;;;;;22.70;13.60;;;;;;;1.22;80.50;100086.25;4923078;29;20166;-81
2021/01/26 01:17:52;;;;;;;21.30;13.40;;;;;;;1.20;80.55;100084.53;4919786;29;20052;-80
2021/01/26 01:20:21;;;;;;;22.15;12.73;;;;;;;1.23;80.61;100081.91;4898426;29;20048;-82
2021/01/26 01:22:47;;;;;;;27.02;14.25;;;;;;;1.21;80.70;100081.06;4902417;29;20063;-81
2021/01/26 01:25:14;;;;;;;25.38;14.05;;;;;;;1.19;80.81;100073.25;4922614;29;20084;-82
2021/01/26 01:27:41;;;;;;;24.58;13.95;;;;;;;1.18;81.09;100076.75;4922358;29;20062;-81
2021/01/26 01:30:10;;;;;;;20.23;13.10;;;;;;;1.21;81.83;100081.91;4927108;29;20060;-80
2021/01/26 01:32:37;;;;;;;22.65;13.70;;;;;;;1.24;81.33;100081.03;4929294;29;20052;-81
2021/01/26 01:35:05;;;;;;;23.65;13.52;;;;;;;1.24;80.96;100079.28;4923329;29;20062;-80
2021/01/26 01:37:33;;;;;;;22.55;13.55;;;;;;;1.34;80.57;100075.63;4911325;29;20052;-80
2021/01/26 01:40:00;;;;;;;22.38;13.35;;;;;;;1.36;80.61;100067.78;4928571;29;20060;-81
2021/01/26 01:42:26;;;;;;;23.10;13.65;;;;;;;1.44;80.68;100078.97;4916854;29;20054;-79
2021/01/26 01:44:52;;;;;;;23.75;13.35;;;;;;;1.44;80.56;100076.34;4906539;29;20052;-80
2021/01/26 01:47:57;;;;;;;24.48;13.63;;;;;;;1.36;80.70;100076.47;4921437;29;20059;-80
2021/01/26 01:50:39;;;;;;;21.02;12.80;;;;;;;1.33;80.49;100073.03;4899468;29;20059;-81
2021/01/26 01:53:15;;;;;;;23.30;13.27;;;;;;;1.25;81.14;100075.78;4928472;29;20044;-80
2021/01/26 01:55:47;;;;;;;23.65;13.57;;;;;;;1.29;81.07;100080.03;4910022;29;20051;-80
2021/01/26 01:58:22;;;;;;;27.85;13.65;;;;;;;1.27;81.32;100075.72;4932381;29;20055;-80
2021/01/26 02:00:53;;;;;;;24.92;13.23;;;;;;;1.26;81.47;100076.66;4933680;29;20086;-79
2021/01/26 02:03:27;;;;;;;24.35;13.60;;;;;;;1.30;81.18;100078.31;4915997;29;20052;-81
2021/01/26 02:05:56;;;;;;;24.08;12.93;;;;;;;1.34;81.00;100080.00;4919268;29;20049;-81
2021/01/26 02:08:31;;;;;;;19.92;12.98;;;;;;;1.29;80.61;100081.78;4929152;29;20048;-81
2021/01/26 02:10:57;;;;;;;20.17;13.05;;;;;;;1.26;81.44;100077.47;4928189;29;20143;-79
2021/01/26 02:13:24;;;;;;;22.90;14.07;;;;;;;1.24;81.33;100087.09;4920831;29;20052;-80
2021/01/26 02:15:56;;;;;;;22.25;13.18;;;;;;;1.27;80.86;100083.56;4899468;29;20849;-82
2021/01/26 02:18:38;;;;;;;21.58;13.18;;;;;;;1.27;81.19;100078.34;4921655;29;20064;-81
2021/01/26 02:21:22;;;;;;;21.90;12.68;;;;;;;1.22;81.21;100073.22;4928564;29;20036;-82
2021/01/26 02:24:12;;;;;;;24.08;13.27;;;;;;;1.19;81.66;100077.59;4923738;29;20084;-81
2021/01/26 02:26:39;;;;;;;;;;;;;;;1.18;82.01;100076.75;4937750;29;20063;-81
2021/01/26 02:29:15;;;;;;;26.15;13.57;;;;;;;1.17;82.26;100079.38;4909251;29;19923;-79
2021/01/26 02:31:41;;;;;;;22.45;13.73;;;;;;;1.18;82.50;100081.09;4936321;29;20044;-81
2021/01/26 02:34:39;;;;;;;25.77;13.30;;;;;;;1.29;81.81;100082.66;4940192;29;20036;-81
2021/01/26 02:37:27;;;;;;;26.15;12.90;;;;;;;1.40;81.19;100092.97;4918542;29;20071;-80
2021/01/26 02:40:32;;;;;;;22.63;12.32;;;;;;;1.50;80.96;100088.44;4923232;29;20045;-81
2021/01/26 02:43:13;;;;;;;20.83;12.70;;;;;;;1.49;80.72;100091.94;4905041;29;20143;-81
2021/01/26 02:45:53;;;;;;;24.80;12.82;;;;;;;1.48;80.80;100093.69;4918601;29;20080;-81
2021/01/26 02:48:35;;;;;;;21.90;12.48;;;;;;;1.45;80.57;100092.88;4914411;29;20055;-82
2021/01/26 02:51:23;;;;;;;22.38;13.10;;;;;;;1.50;80.14;100091.94;4919488;29;20048;-81
2021/01/26 02:53:59;;;;;;;24.17;12.45;;;;;;;1.51;80.32;100087.56;4920169;29;20059;-82
2021/01/26 02:56:38;;;;;;;20.85;11.90;;;;;;;1.54;79.76;100093.63;4921837;29;20052;-82
2021/01/26 02:59:17;;;;;;;20.65;12.07;;;;;;;1.52;79.62;100098.00;4921936;29;20052;-81
2021/01/26 03:01:50;;;;;;;18.58;10.77;;;;;;;1.50;80.16;100086.72;4905038;29;20051;-82
2021/01/26 03:04:36;;;;;;;25.17;11.70;;;;;;;1.45;79.95;100085.03;4920964;29;20040;-79
2021/01/26 03:07:04;;;;;;;20.73;11.85;;;;;;;1.42;79.82;100080.72;4902839;29;20053;-82
2021/01/26 03:09:39;;;;;;;18.38;10.82;;;;;;;1.47;79.93;100076.31;4935773;29;20119;-82
2021/01/26 03:12:24;;;;;;;21.38;12.45;;;;;;;1.46;79.39;100089.38;4930924;29;20444;-82
2021/01/26 03:14:53;;;;;;;22.38;10.98;;;;;;;1.45;79.55;100079.81;4929596;29;20040;-82
2021/01/26 03:17:29;;;;;;;21.98;11.15;;;;;;;1.43;80.06;100082.44;4936335;29;20044;-82
2021/01/26 03:20:00;;;;;;;20.20;11.05;;;;;;;1.49;79.83;100084.13;4930646;29;20056;-82
2021/01/26 03:22:29;;;;;;;21.73;12.10;;;;;;;1.43;80.13;100087.66;4922455;29;20067;-82
2021/01/26 03:24:57;;;;;;;25.65;11.63;;;;;;;1.40;80.51;100078.16;4922667;29;20040;-82
2021/01/26 03:27:32;;;;;;;21.25;11.45;;;;;;;1.41;80.19;100081.63;4924803;29;20058;-81
2021/01/26 03:29:59;;;;;;;22.92;11.93;;;;;;;1.45;80.12;100083.28;4910066;29;20060;-81
2021/01/26 03:32:33;;;;;;;23.02;11.90;;;;;;;1.42;80.42;100072.91;4913324;29;20055;-81
2021/01/26 03:35:01;;;;;;;20.02;11.32;;;;;;;1.45;80.29;100090.25;4914015;29;20068;-82
2021/01/26 03:37:27;;;;;;;21.55;11.23;;;;;;;1.37;80.45;100096.47;4912289;29;20056;-81
2021/01/26 03:39:53;;;;;;;20.55;10.63;;;;;;;1.41;81.36;100089.47;4932498;29;20048;-82
2021/01/26 03:42:25;;;;;;;21.83;11.38;;;;;;;1.50;80.10;100094.53;4920168;29;20103;-81
2021/01/26 03:44:52;;;;;;;22.08;11.20;;;;;;;1.52;80.38;100098.00;4939437;29;20032;-81
2021/01/26 03:47:36;;;;;;;18.55;10.65;;;;;;;1.50;80.38;100099.75;4939481;29;20063;-81
2021/01/26 03:50:25;;;;;;;20.52;10.00;;;;;;;1.54;80.96;100101.44;4926042;29;20048;-82
2021/01/26 03:53:13;;;;;;;18.80;10.60;;;;;;;1.61;80.35;100102.19;4920612;29;20050;-82
2021/01/26 03:56:05;;;;;;;20.83;11.23;;;;;;;1.64;80.13;100115.19;4930238;29;20044;-83
2021/01/26 03:58:56;;;;;;;17.63;9.98;;;;;;;1.73;79.75;100108.06;4930356;29;20163;-81
2021/01/26 04:01:36;;;;;;;20.80;10.27;;;;;;;1.75;79.83;100108.91;4928961;29;20056;-79
2021/01/26 04:04:04;;;;;;;19.83;9.95;;;;;;;1.75;80.35;100105.44;4929252;29;20951;-80
2021/01/26 04:06:50;;;;;;;21.40;10.23;;;;;;;1.80;80.50;100111.47;4920190;29;20065;-81
2021/01/26 04:09:24;;;;;;;20.17;10.60;;;;;;;1.79;80.39;100107.13;4932057;29;20132;-81
2021/01/26 04:12:01;;;;;;;19.20;9.75;;;;;;;1.86;79.67;100118.34;4929851;29;20124;-83
2021/01/26 04:14:36;;;;;;;17.95;9.80;;;;;;;1.85;80.20;100116.63;4914676;29;20108;-82
2021/01/26 04:17:13;;;;;;;19.67;10.23;;;;;;;1.86;79.94;100123.56;4932015;29;20111;-82
2021/01/26 04:19:47;;;;;;;17.63;9.65;;;;;;;1.87;80.16;100122.69;4927341;29;20052;-82
2021/01/26 04:22:15;;;;;;;17.58;10.00;;;;;;;1.90;80.05;100126.09;4924184;29;20066;-82
2021/01/26 04:24:41;;;;;;;20.42;9.98;;;;;;;1.90;79.93;100127.84;4933528;29;20102;-82
2021/01/26 04:27:15;;;;;;;16.25;9.68;;;;;;;1.89;80.27;100115.69;4908073;29;20054;-82
2021/01/26 04:29:41;;;;;;;19.35;9.93;;;;;;;1.87;80.47;100112.25;4899483;29;20044;-80
2021/01/26 04:32:09;;;;;;;23.73;10.82;;;;;;;1.80;81.01;100123.66;4927250;29;20052;-82
2021/01/26 04:34:35;;;;;;;20.48;10.15;;;;;;;1.81;81.19;100125.38;4919310;29;20136;-82
2021/01/26 04:37:02;;;;;;;21.58;9.95;;;;;;;1.78;81.37;100136.72;4940266;29;20040;-82
2021/01/26 04:39:28;;;;;;;19.52;10.15;;;;;;;1.79;81.22;100124.53;4938260;29;20104;-81
2021/01/26 04:42:15;;;;;;;21.15;10.40;;;;;;;1.77;82.21;100114.13;4935976;29;20072;-81
2021/01/26 04:44:57;;;;;;;18.48;10.07;;;;;;;1.83;81.52;100111.41;4917546;29;20088;-81
2021/01/26 04:47:36;;;;;;;20.10;10.13;;;;;;;1.89;81.68;100113.91;4931307;29;20075;-81
2021/01/26 04:50:22;;;;;;;20.48;10.52;;;;;;;1.93;81.10;100114.72;4931029;29;20108;-81
2021/01/26 04:53:03;;;;;;;19.95;10.75;;;;;;;1.91;80.80;100106.91;4930824;29;20064;-81
2021/01/26 04:55:41;;;;;;;17.45;10.20;;;;;;;1.90;80.87;100107.81;4931062;29;20048;-81
2021/01/26 04:58:10;;;;;;;19.13;11.18;;;;;;;1.90;81.45;100104.34;4938151;29;20100;-80
2021/01/26 05:00:56;;;;;;;19.35;10.50;;;;;;;1.94;81.11;100114.72;4932883;29;20087;-80
2021/01/26 05:03:51;;;;;;;20.08;10.60;;;;;;;1.91;81.29;100116.50;4916392;29;20111;-81
2021/01/26 05:06:21;;;;;;;20.38;10.25;;;;;;;1.97;81.68;100121.63;4922963;29;20028;-81
2021/01/26 05:08:51;;;;;;;21.48;10.85;;;;;;;1.97;81.18;100119.88;4929561;29;20045;-80
2021/01/26 05:11:23;;;;;;;20.00;10.18;;;;;;;1.96;81.04;100114.69;4924797;29;20040;-81
2021/01/26 05:13:56;;;;;;;22.00;10.20;;;;;;;1.97;80.80;100121.63;4907158;29;20049;-82
2021/01/26 05:16:39;;;;;;;23.17;10.98;;;;;;;1.95;81.17;100124.28;4923216;29;20052;-80
2021/01/26 05:19:20;;;;;;;19.60;10.23;;;;;;;1.93;81.02;100115.59;4934324;29;20084;-81
2021/01/26 05:22:14;;;;;;;21.50;11.05;;;;;;;2.00;81.72;100122.47;4932076;29;20056;-81
2021/01/26 05:24:48;;;;;;;20.95;10.65;;;;;;;2.08;81.21;100130.16;4929844;29;20059;-81
2021/01/26 05:27:14;;;;;;;19.08;10.40;;;;;;;2.05;81.07;100124.97;4921337;29;20058;-81
2021/01/26 05:29:41;;;;;;;18.75;10.82;;;;;;;2.05;81.65;100124.97;4907202;29;20052;-82
2021/01/26 05:32:12;;;;;;;19.30;10.45;;;;;;;2.05;81.79;100123.22;4931663;29;20056;-80
2021/01/26 05:34:41;;;;;;;17.65;10.40;;;;;;;2.06;81.52;100127.56;4922706;29;20063;-80
2021/01/26 05:37:11;;;;;;;20.98;10.43;;;;;;;2.10;81.50;100125.75;4929376;29;20052;-82
2021/01/26 05:39:42;;;;;;;18.90;9.77;;;;;;;2.14;81.49;100123.97;4926683;29;20103;-82
2021/01/26 05:42:14;;;;;;;17.27;9.73;;;;;;;2.12;81.66;100124.00;4927887;29;20112;-81
2021/01/26 05:44:47;;;;;;;19.13;9.77;;;;;;;2.11;81.74;100136.19;4924332;29;20036;-81
2021/01/26 05:47:31;;;;;;;18.05;9.20;;;;;;;2.13;81.79;100128.34;4902546;29;20055;-82
2021/01/26 05:49:59;;;;;;;17.73;9.60;;;;;;;2.16;80.82;100133.50;4918768;29;20095;-80
2021/01/26 05:52:40;;;;;;;16.52;9.10;;;;;;;2.15;81.43;100134.41;4928767;29;20074;-81
2021/01/26 05:55:27;;;;;;;19.38;8.82;;;;;;;2.18;81.08;100136.09;4921331;29;20040;-80
2021/01/26 05:57:55;;;;;;;17.40;8.70;;;;;;;2.17;81.35;100135.25;4920689;29;20060;-82
2021/01/26 06:00:24;;;;;;;16.30;8.73;;;;;;;2.13;82.01;100133.56;4920212;29;20064;-82
2021/01/26 06:03:11;;;;;;;17.70;9.00;;;;;;;2.22;81.19;100141.22;4925437;29;20059;-82
2021/01/26 06:05:41;;;;;;;13.82;8.40;;;;;;;2.24;80.68;100139.44;4940643;29;20068;-82
2021/01/26 06:08:09;;;;;;;15.70;8.80;;;;;;;2.27;81.19;100143.75;4911072;29;20048;-82
2021/01/26 06:10:39;;;;;;;13.63;8.05;;;;;;;2.40;79.87;100153.09;4912304;29;20061;-82
2021/01/26 06:13:07;;;;;;;14.63;8.32;;;;;;;2.41;80.11;100154.84;4923721;29;20104;-82
2021/01/26 06:15:36;;;;;;;15.07;8.00;;;;;;;2.45;80.32;100160.00;4921147;29;20135;-82
2021/01/26 06:18:20;;;;;;;12.45;8.48;;;;;;;2.46;79.88;100155.63;4925227;29;20123;-81
2021/01/26 06:21:05;;;;;;;13.80;7.90;;;;;;;2.40;81.40;100156.59;4921723;29;20044;-82
2021/01/26 06:23:33;;;;;;;14.82;7.40;;;;;;;2.40;81.16;100155.72;4925254;29;20048;-82
2021/01/26 06:26:05;;;;;;;12.25;7.30;;;;;;;2.37;81.69;100147.94;4935312;29;20049;-81
2021/01/26 06:28:41;;;;;;;12.98;7.53;;;;;;;2.50;80.20;100156.44;4936368;29;20075;-82
2021/01/26 06:31:26;;;;;;;12.80;7.30;;;;;;;2.52;80.31;100163.34;4914554;29;20052;-82
2021/01/26 06:34:19;;;;;;;14.85;7.55;;;;;;;2.57;79.77;100164.13;4936389;29;20043;-83
2021/01/26 06:37:23;;;;;;;14.77;6.88;;;;;;;2.64;79.82;100164.88;4935906;29;20050;-82
2021/01/26 06:40:19;;;;;;;14.60;6.95;;;;;;;2.69;79.13;100170.88;4919868;29;20032;-79
2021/01/26 06:42:52;;;;;;;12.98;6.45;;;;;;;2.62;79.84;100175.38;4911694;29;20048;-80
2021/01/26 06:45:41;;;;;;;14.02;6.70;;;;;;;2.57;80.14;100177.19;4924120;29;20059;-80
2021/01/26 06:48:20;;;;;;;13.20;7.47;;;;;;;2.58;79.94;100180.66;4923921;29;20044;-82
2021/01/26 06:50:59;;;;;;;13.00;6.60;;;;;;;2.52;80.60;100179.03;4921080;29;20056;-82
2021/01/26 06:53:39;;;;;;;11.05;6.22;;;;;;;2.60;79.93;100174.53;4924454;29;20052;-82
2021/01/26 06:56:35;;;;;;;12.18;6.75;;;;;;;2.64;79.91;100185.81;4909527;29;20056;-83
2021/01/26 06:59:23;;;;;;;13.05;6.50;;;;;;;2.71;80.17;100183.03;4918587;29;20062;-81
2021/01/26 07:02:23;;;;;;;12.05;5.90;;;;;;;2.76;79.35;100193.41;4929907;29;20320;-82
2021/01/26 07:05:18;;;;;;;11.52;6.05;;;;;;;2.77;79.07;100200.38;4911067;29;20043;-79
2021/01/26 07:08:12;;;;;;;11.93;5.60;;;;;;;2.75;80.08;100196.91;4930183;29;20084;-80
2021/01/26 07:11:09;;;;;;;10.40;6.20;;;;;;;2.72;79.72;100205.69;4924559;29;20071;-80
2021/01/26 07:13:56;;;;;;;9.75;5.53;;;;;;;2.78;79.71;100209.94;4906337;29;20080;-80
2021/01/26 07:16:36;;;;;;;11.40;5.95;;;;;;;2.84;79.48;100225.50;4924057;29;20060;-80
2021/01/26 07:19:22;;;;;;;9.95;5.80;;;;;;;2.80;79.94;100216.00;4923707;29;20111;-80
2021/01/26 07:22:09;;;;;;;11.95;5.95;;;;;;;2.74;80.20;100216.97;4923692;29;20086;-80
2021/01/26 07:24:51;;;;;;;13.30;5.53;;;;;;;2.74;80.39;100216.97;4907496;29;20108;-80
2021/01/26 07:28:02;;;;;;;12.35;6.32;;;;;;;2.74;80.64;100223.97;4925365;29;20162;-81
2021/01/26 07:30:55;;;;;;;11.13;5.95;;;;;;;2.78;80.29;100225.63;4914304;29;20083;-79
2021/01/26 07:33:47;;;;;;;13.70;5.72;;;;;;;2.78;79.78;100229.13;4927759;29;20052;-83
2021/01/26 07:36:41;;;;;;;7.22;5.25;;;;;;;2.81;80.20;100236.91;4918083;29;20032;-83
2021/01/26 07:39:26;;;;;;;10.00;5.57;;;;;;;2.89;79.28;100247.22;4938047;28;20058;-81
2021/01/26 07:42:06;;;;;;;17.15;9.05;;;;;;;2.92;80.64;100249.78;4928855;29;20094;-81
2021/01/26 07:44:44;;;;;;;8.63;5.35;;;;;;;2.95;79.42;100238.41;4923973;29;20037;-82
2021/01/26 07:47:21;;;;;;;8.93;5.15;;;;;;;3.06;79.29;100260.84;4937516;29;20111;-81
2021/01/26 07:50:13;;;;;;;10.88;4.53;;;;;;;3.05;78.96;100251.28;4924465;29;20052;-82
2021/01/26 07:52:40;;;;;;;;;;;;;;;3.07;78.31;100261.72;4925413;29;20060;-81
2021/01/26 07:55:32;;;;;;;8.98;4.82;;;;;;;3.00;80.38;100255.72;4919229;29;20376;-82
2021/01/26 07:58:09;;;;;;;9.55;5.03;;;;;;;2.95;79.95;100254.09;4922251;29;20083;-81
2021/01/26 08:00:40;;;;;;;10.65;5.60;;;;;;;2.93;80.39;100261.09;4913575;29;20052;-81
2021/01/26 08:03:09;;;;;;;9.63;5.07;;;;;;;3.00;79.88;100262.69;4931133;29;20050;-82
2021/01/26 08:05:38;;;;;;;6.55;4.75;;;;;;;3.00;80.08;100271.41;4914987;29;20047;-82
2021/01/26 08:08:07;;;;;;;11.38;5.35;;;;;;;3.05;80.44;100269.59;4928277;29;20060;-81
2021/01/26 08:10:34;;;;;;;10.40;4.80;;;;;;;3.11;79.77;100261.63;4922129;29;20056;-81
2021/01/26 08:13:02;;;;;;;11.18;5.10;;;;;;;3.14;79.33;100273.81;4917359;29;20056;-81
2021/01/26 08:15:38;;;;;;;6.93;4.60;;;;;;;3.12;79.42;100270.34;4921025;29;20056;-80
2021/01/26 08:18:21;;;;;;;13.35;4.90;;;;;;;3.21;79.57;100279.75;4919700;29;20044;-81
2021/01/26 08:20:48;;;;;;;8.43;5.15;;;;;;;3.23;79.23;100283.22;4905160;29;20086;-81
2021/01/26 08:23:31;;;;;;;7.88;4.47;;;;;;;3.15;79.64;100280.72;4904865;29;20079;-82
2021/01/26 08:26:17;;;;;;;9.07;4.60;;;;;;;3.24;78.58;100284.94;4928454;29;20064;-81
2021/01/26 08:28:47;;;;;;;8.35;4.70;;;;;;;3.25;78.66;100294.53;4912154;29;20048;-84
2021/01/26 08:31:29;;;;;;;8.10;4.60;;;;;;;3.27;78.50;100292.75;4922937;29;20149;-80
2021/01/26 08:34:23;;;;;;;7.35;4.18;;;;;;;3.28;78.65;100291.84;4923715;29;20056;-81
2021/01/26 08:37:13;;;;;;;8.02;4.30;;;;;;;3.31;78.51;100307.47;4903697;29;20744;-80
2021/01/26 08:39:44;;;;;;;8.00;4.53;;;;;;;3.28;78.84;100308.41;4920251;29;20048;-81
2021/01/26 08:42:42;;;;;;;11.50;4.68;;;;;;;3.24;79.57;100308.50;4899782;29;20052;-82
2021/01/26 08:45:39;;;;;;;10.77;5.70;;;;;;;3.22;80.39;100305.03;4902069;29;20055;-81
2021/01/26 08:48:22;;;;;;;9.98;5.22;;;;;;;3.27;80.01;100318.91;4920025;29;20187;-81
2021/01/26 08:50:51;;;;;;;8.07;4.53;;;;;;;3.34;80.20;100312.66;4908502;29;20052;-83
2021/01/26 08:53:27;;;;;;;10.27;4.85;;;;;;;3.38;80.14;100314.34;4905531;29;20066;-81
2021/01/26 08:56:10;;;;;;;8.90;4.50;;;;;;;3.32;79.68;100290.88;4905590;29;20127;-81
2021/01/26 08:58:46;;;;;;;7.38;3.83;;;;;;;3.55;78.63;100321.88;4903866;29;20107;-81
2021/01/26 09:01:25;;;;;;;8.57;3.55;;;;;;;3.59;78.04;100321.78;4923359;29;20493;-83
2021/01/26 09:03:53;;;;;;;10.38;3.75;;;;;;;3.58;77.72;100324.44;4907398;29;20048;-81
2021/01/26 09:06:38;;;;;;;8.35;3.50;;;;;;;3.59;77.18;100323.53;4919478;29;20258;-82
2021/01/26 09:09:30;;;;;;;8.13;4.10;;;;;;;3.59;77.93;100332.25;4923446;29;20067;-82
2021/01/26 09:12:07;;;;;;;8.23;3.90;;;;;;;3.64;77.58;100326.91;4930441;29;20044;-81
2021/01/26 09:14:53;;;;;;;8.63;3.70;;;;;;;3.81;76.36;100340.53;4929351;29;20044;-83
2021/01/26 09:17:25;;;;;;;8.45;3.58;;;;;;;3.80;75.87;100341.41;4913714;29;20052;-84
2021/01/26 09:19:58;;;;;;;6.40;3.83;;;;;;;3.80;76.62;100352.75;4925887;29;20090;-80
2021/01/26 09:22:26;;;;;;;7.90;3.72;;;;;;;3.74;75.65;100347.66;4900976;29;20055;-82
2021/01/26 09:25:17;;;;;;;8.88;4.05;;;;;;;3.85;80.18;100350.91;4918995;29;20049;-82
2021/01/26 09:28:04;;;;;;;8.02;3.60;;;;;;;4.07;78.35;100353.09;4932694;29;20048;-79
2021/01/26 09:30:37;;;;;;;8.88;3.65;;;;;;;4.28;75.45;100363.09;4912310;29;20052;-80
2021/01/26 09:33:12;;;;;;;6.75;3.42;;;;;;;4.22;74.60;100368.50;4926391;29;20055;-81
2021/01/26 09:35:44;;;;;;;8.35;3.25;;;;;;;4.20;74.03;100365.06;4937443;29;20050;-80
2021/01/26 09:38:16;;;;;;;7.63;3.40;;;;;;;4.16;73.90;100376.47;4940180;28;20076;-79
2021/01/26 09:40:46;;;;;;;7.22;3.20;;;;;;;4.13;73.46;100363.44;4753667;29;20076;-80
2021/01/26 09:43:12;;;;;;;7.50;3.35;;;;;;;4.05;74.14;100366.25;4908524;29;20044;-80
2021/01/26 09:45:39;;;;;;;8.55;3.00;;;;;;;4.11;73.48;100367.84;4928553;29;20056;-83
2021/01/26 09:48:07;;;;;;;7.15;3.47;;;;;;;4.12;73.81;100370.44;4935301;29;20047;-81
2021/01/26 09:50:34;;;;;;;9.30;3.47;;;;;;;4.10;73.66;100373.97;4938298;29;20048;-80
2021/01/26 09:53:03;;;;;;;8.10;3.42;;;;;;;4.09;73.61;100373.13;4931401;29;20048;-79
2021/01/26 09:55:31;;;;;;;8.02;3.00;;;;;;;4.07;73.68;100374.06;4921947;29;20088;-81
2021/01/26 09:58:00;;;;;;;6.85;3.90;;;;;;;4.10;73.70;100387.09;4925651;29;20055;-81
2021/01/26 10:00:28;;;;;;;5.20;3.20;;;;;;;4.12;73.93;100380.06;4924514;29;20059;-81
2021/01/26 10:02:58;;;;;;;8.45;3.38;;;;;;;4.09;73.80;100383.59;4929288;29;20052;-81
2021/01/26 10:05:27;;;;;;;7.10;3.10;;;;;;;4.07;73.63;100392.41;4911729;29;20074;-80
2021/01/26 10:08:19;;;;;;;12.52;3.13;;;;;;;4.09;74.08;100401.09;4914668;29;20080;-81
2021/01/26 10:10:46;;;;;;;6.32;2.80;;;;;;;4.03;74.03;100404.72;4934523;29;20056;-80
2021/01/26 10:13:20;;;;;;;7.78;3.00;;;;;;;4.03;74.23;100401.22;4923884;29;20112;-80
2021/01/26 10:15:50;;;;;;;10.82;3.20;;;;;;;3.97;74.94;100404.81;4922748;29;20076;-81
2021/01/26 10:18:19;;;;;;;6.68;3.30;;;;;;;4.05;74.84;100416.03;4913121;29;20052;-83
2021/01/26 10:20:47;;;;;;;5.82;3.17;;;;;;;4.06;75.38;100411.66;4935537;29;20065;-83
2021/01/26 10:23:43;;;;;;;4.85;2.75;;;;;;;4.03;75.63;100419.56;4936766;29;20051;-79
2021/01/26 10:26:22;;;;;;;5.97;2.90;;;;;;;4.10;75.49;100421.16;4928604;29;20139;-80
2021/01/26 10:29:05;;;;;;;8.73;3.13;;;;;;;4.13;74.93;100421.09;4917299;29;20457;-80
2021/01/26 10:31:45;;;;;;;6.78;3.03;;;;;;;4.20;75.29;100425.34;4905341;29;20052;-80
2021/01/26 10:34:30;;;;;;;6.82;3.17;;;;;;;4.23;74.94;100427.91;4914807;29;20075;-80
2021/01/26 10:37:31;;;;;;;7.75;3.65;;;;;;;4.17;75.63;100428.88;4928169;29;20083;-81
2021/01/26 10:40:13;;;;;;;8.02;2.83;;;;;;;4.18;75.96;100424.50;4933720;29;20047;-82
2021/01/26 10:42:46;;;;;;;5.80;2.92;;;;;;;4.20;75.79;100433.19;4931846;29;20051;-81
2021/01/26 10:45:15;;;;;;;4.88;3.05;;;;;;;4.22;75.61;100442.75;4934863;29;20052;-81
2021/01/26 10:47:44;;;;;;;7.00;3.22;;;;;;;4.25;75.39;100440.97;4930501;29;20111;-80
2021/01/26 10:50:15;;;;;;;8.70;3.53;;;;;;;4.24;75.72;100445.34;4914045;29;20048;-81
2021/01/26 10:52:47;;;;;;;6.93;3.35;;;;;;;4.22;75.51;100448.00;4917036;29;20162;-81
2021/01/26 10:55:22;;;;;;;6.88;3.13;;;;;;;4.26;74.50;100450.53;4931285;29;20052;-81
2021/01/26 10:57:51;;;;;;;8.57;3.50;;;;;;;4.22;74.42;100448.00;4913076;29;20135;-79
2021/01/26 11:00:25;;;;;;;5.03;2.75;;;;;;;4.30;75.00;100454.81;4933601;29;20060;-80
2021/01/26 11:02:57;;;;;;;9.43;2.80;;;;;;;4.32;75.72;100453.03;4928359;29;20048;-81
2021/01/26 11:05:24;;;;;;;10.02;3.22;;;;;;;4.32;76.17;100450.41;4925098;29;20464;-80
2021/01/26 11:07:51;;;;;;;6.90;3.05;;;;;;;4.40;76.07;100465.13;4918128;29;20112;-82
2021/01/26 11:10:18;;;;;;;8.85;2.95;;;;;;;4.46;75.38;100458.84;4935087;29;20055;-82
2021/01/26 11:12:45;;;;;;;6.13;2.65;;;;;;;4.41;75.72;100461.56;4909832;29;20049;-83
2021/01/26 11:15:21;;;;;;;8.68;2.80;;;;;;;4.39;75.99;100463.38;4930132;29;20134;-83
2021/01/26 11:17:48;;;;;;;8.43;3.13;;;;;;;4.30;76.38;100458.31;4910123;29;20398;-81
2021/01/26 11:20:17;;;;;;;7.97;2.67;;;;;;;4.22;76.67;100458.47;4925262;29;20082;-83
2021/01/26 11:22:43;;;;;;;7.38;2.70;;;;;;;4.17;77.04;100454.22;4916146;29;20051;-83
2021/01/26 11:25:11;;;;;;;7.85;3.33;;;;;;;4.13;77.51;100453.41;4909686;29;20049;-82
2021/01/26 11:27:41;;;;;;;7.93;3.20;;;;;;;4.14;78.15;100459.50;4904646;29;20065;-82
2021/01/26 11:30:12;;;;;;;8.18;2.97;;;;;;;4.18;78.66;100455.94;4907959;29;20036;-81
2021/01/26 11:32:53;;;;;;;6.47;2.97;;;;;;;4.20;77.90;100454.16;4912622;29;20123;-82
2021/01/26 11:35:23;;;;;;;9.18;2.83;;;;;;;4.21;78.07;100448.88;4921810;29;20053;-83
2021/01/26 11:37:53;;;;;;;6.82;3.00;;;;;;;4.22;78.49;100439.28;4931415;29;20086;-80
2021/01/26 11:40:21;;;;;;;9.15;3.17;;;;;;;4.31;77.69;100449.56;4928008;29;20474;-81
2021/01/26 11:42:47;;;;;;;10.45;3.15;;;;;;;4.28;77.74;100465.34;4930097;29;20063;-82
2021/01/26 11:45:35;;;;;;;5.88;2.90;;;;;;;4.28;78.58;100460.09;4909909;29;20052;-81
2021/01/26 11:48:04;;;;;;;8.30;3.03;;;;;;;4.34;78.22;100461.75;4915517;29;20052;-84
2021/01/26 11:50:36;;;;;;;11.13;3.10;;;;;;;4.34;78.01;100460.00;4908819;29;20052;-82
2021/01/26 11:53:09;;;;;;;6.18;3.13;;;;;;;4.43;77.68;100469.41;4920754;29;20060;-82
2021/01/26 11:55:36;;;;;;;10.35;3.20;;;;;;;4.38;77.09;100468.66;4905398;29;20047;-82
2021/01/26 11:58:04;;;;;;;6.47;2.95;;;;;;;4.41;77.17;100464.19;4895088;29;20127;-79
2021/01/26 12:00:33;;;;;;;6.43;3.05;;;;;;;4.49;77.03;100478.03;4916306;29;20056;-80
2021/01/26 12:03:01;;;;;;;5.25;3.00;;;;;;;4.51;76.91;100478.00;4915414;29;20052;-79